Aviation Digital Data Service (ADDS)

Output produced by METARs form (0922 UTC 29 March 2015)
found at http://aviationweather.gov/adds/metars/
 
KLBT 290520Z 2906/3006 01006KT P6SM SKC 
     FM291900 26005KT P6SM SCT250 
     FM300000 VRB02KT P6SM SCT150 BKN250